createdAt,value
2023-05-11T00:00:12.187Z,37.30
2023-05-11T00:02:38.602Z,37.56
2023-05-11T00:05:04.998Z,36.92
2023-05-11T00:07:31.356Z,37.23
2023-05-11T00:09:57.701Z,36.62
2023-05-11T00:12:24.076Z,36.86
2023-05-11T00:14:50.411Z,37.06
2023-05-11T00:17:17.641Z,36.89
2023-05-11T00:19:43.998Z,36.86
2023-05-11T00:22:11.196Z,37.00
2023-05-11T00:24:37.520Z,37.24
2023-05-11T00:27:03.855Z,37.47
2023-05-11T00:29:30.182Z,37.35
2023-05-11T00:31:56.660Z,37.59
2023-05-11T00:34:23.071Z,37.58
2023-05-11T00:36:49.410Z,37.51
2023-05-11T00:39:15.757Z,37.44
2023-05-11T00:41:42.106Z,37.53
2023-05-11T00:44:08.472Z,37.96
2023-05-11T00:46:34.855Z,37.42
2023-05-11T00:49:01.208Z,37.99
2023-05-11T00:51:27.535Z,37.37
2023-05-11T00:53:53.875Z,37.90
2023-05-11T00:56:20.228Z,37.95
2023-05-11T00:58:46.564Z,37.73
2023-05-11T01:01:12.930Z,37.67
2023-05-11T01:03:39.355Z,37.95
2023-05-11T01:06:05.732Z,37.59
2023-05-11T01:08:32.052Z,37.79
2023-05-11T01:10:58.413Z,37.86
2023-05-11T01:13:24.750Z,37.71
2023-05-11T01:15:51.104Z,37.88
2023-05-11T01:18:17.459Z,37.91
2023-05-11T01:20:43.828Z,37.72
2023-05-11T01:23:10.207Z,37.62
2023-05-11T01:25:36.562Z,38.03
2023-05-11T01:28:02.926Z,38.23
2023-05-11T01:30:29.270Z,37.97
2023-05-11T01:32:55.621Z,38.64
2023-05-11T01:35:21.996Z,38.10
2023-05-11T01:37:48.346Z,37.92
2023-05-11T01:40:14.733Z,38.02
2023-05-11T01:42:41.074Z,37.89
2023-05-11T01:45:07.418Z,38.65
2023-05-11T01:47:33.782Z,37.88
2023-05-11T01:50:00.166Z,38.49
2023-05-11T01:52:26.512Z,37.94
2023-05-11T01:54:52.845Z,38.04
2023-05-11T01:57:19.223Z,38.53
2023-05-11T01:59:45.617Z,38.42
2023-05-11T02:02:12.014Z,38.44
2023-05-11T02:04:38.374Z,38.59
2023-05-11T02:07:04.725Z,38.66
2023-05-11T02:09:31.100Z,37.84
2023-05-11T02:11:57.422Z,38.13
2023-05-11T02:14:23.795Z,38.80
2023-05-11T02:16:50.142Z,37.83
2023-05-11T02:19:16.487Z,38.13
2023-05-11T02:21:42.829Z,38.49
2023-05-11T02:24:09.171Z,38.42
2023-05-11T02:26:35.496Z,38.21
2023-05-11T02:29:01.822Z,38.79
2023-05-11T02:31:28.180Z,38.65
2023-05-11T02:33:54.496Z,38.16
2023-05-11T02:36:20.828Z,38.62
2023-05-11T02:38:47.156Z,38.57
2023-05-11T02:41:13.482Z,38.86
2023-05-11T02:43:39.798Z,38.85
2023-05-11T02:46:06.166Z,38.65
2023-05-11T02:48:32.484Z,38.44
2023-05-11T02:50:58.816Z,38.42
2023-05-11T02:53:25.165Z,38.54
2023-05-11T02:55:51.490Z,38.66
2023-05-11T02:58:17.945Z,38.42
2023-05-11T03:00:44.549Z,38.85
2023-05-11T03:03:11.123Z,39.08
2023-05-11T03:05:37.580Z,38.94
2023-05-11T03:08:03.977Z,39.08
2023-05-11T03:10:30.277Z,39.06
2023-05-11T03:12:56.607Z,38.48
2023-05-11T03:15:22.919Z,38.40
2023-05-11T03:17:49.331Z,39.42
2023-05-11T03:20:15.772Z,39.07
2023-05-11T03:22:42.265Z,38.64
2023-05-11T03:25:08.641Z,38.59
2023-05-11T03:27:35.008Z,38.86
2023-05-11T03:30:01.310Z,38.59
2023-05-11T03:32:28.069Z,38.68
2023-05-11T03:34:54.488Z,39.08
2023-05-11T03:37:20.785Z,39.60
2023-05-11T03:39:47.113Z,39.16
2023-05-11T03:42:13.459Z,38.92
2023-05-11T03:44:39.839Z,38.88
2023-05-11T03:47:06.177Z,38.95
2023-05-11T03:49:32.513Z,38.99
2023-05-11T03:51:58.876Z,39.06
2023-05-11T03:54:25.210Z,38.88
2023-05-11T03:56:51.546Z,38.79
2023-05-11T03:59:17.910Z,38.93
2023-05-11T04:01:44.245Z,39.00
2023-05-11T04:04:10.577Z,38.96
2023-05-11T04:06:36.934Z,38.65
2023-05-11T04:09:03.263Z,38.78
2023-05-11T04:11:29.591Z,38.77
2023-05-11T04:13:55.956Z,38.74
2023-05-11T04:16:22.337Z,38.82
2023-05-11T04:18:48.830Z,38.41
2023-05-11T04:21:16.049Z,38.81
2023-05-11T04:23:42.412Z,38.49
2023-05-11T04:26:09.637Z,38.73
2023-05-11T04:28:35.949Z,38.73
2023-05-11T04:31:02.331Z,38.89
2023-05-11T04:33:28.697Z,38.31
2023-05-11T04:35:55.050Z,38.59
2023-05-11T04:38:21.408Z,39.67
2023-05-11T04:40:47.801Z,38.45
2023-05-11T04:43:14.157Z,38.48
2023-05-11T04:45:40.528Z,38.92
2023-05-11T04:48:06.981Z,38.31
2023-05-11T04:50:33.387Z,38.47
2023-05-11T04:52:59.822Z,38.73
2023-05-11T04:55:26.187Z,38.45
2023-05-11T04:57:52.564Z,38.67
2023-05-11T05:00:19.195Z,38.70
2023-05-11T05:02:45.847Z,38.43
2023-05-11T05:05:12.242Z,38.29
2023-05-11T05:07:38.586Z,38.76
2023-05-11T05:10:04.954Z,38.14
2023-05-11T05:12:31.276Z,38.17
2023-05-11T05:14:57.600Z,38.06
2023-05-11T05:17:23.951Z,37.97
2023-05-11T05:19:50.289Z,38.92
2023-05-11T05:22:16.634Z,38.86
2023-05-11T05:24:42.950Z,38.80
2023-05-11T05:27:09.425Z,38.54
2023-05-11T05:29:35.814Z,38.78
2023-05-11T05:32:02.312Z,38.95
2023-05-11T05:34:29.599Z,38.77
2023-05-11T05:36:56.824Z,38.71
2023-05-11T05:39:25.994Z,38.79
2023-05-11T05:41:52.415Z,38.67
2023-05-11T05:44:19.857Z,38.67
2023-05-11T05:46:47.235Z,38.88
2023-05-11T05:49:13.723Z,38.92
2023-05-11T05:51:40.182Z,38.31
2023-05-11T05:54:06.644Z,38.57
2023-05-11T05:56:33.996Z,38.16
2023-05-11T05:59:00.456Z,38.20
2023-05-11T06:01:29.639Z,38.16
2023-05-11T06:03:57.243Z,37.94
2023-05-11T06:06:23.905Z,38.21
2023-05-11T06:08:50.347Z,38.00
2023-05-11T06:11:16.825Z,37.98
2023-05-11T06:13:43.248Z,38.06
2023-05-11T06:16:09.794Z,37.85
2023-05-11T06:18:36.286Z,38.00
2023-05-11T06:21:02.690Z,37.75
2023-05-11T06:23:29.191Z,37.38
2023-05-11T06:25:55.620Z,37.38
2023-05-11T06:28:22.007Z,37.69
2023-05-11T06:30:48.345Z,37.63
2023-05-11T06:33:14.783Z,37.60
2023-05-11T06:35:41.276Z,37.38
2023-05-11T06:38:07.738Z,37.78
2023-05-11T06:40:34.183Z,37.47
2023-05-11T06:43:00.711Z,37.37
2023-05-11T06:45:27.273Z,37.49
2023-05-11T06:47:53.836Z,37.46
2023-05-11T06:50:21.446Z,37.59
2023-05-11T06:52:48.616Z,36.66
2023-05-11T06:55:15.045Z,37.18
2023-05-11T06:57:43.357Z,37.07
2023-05-11T07:00:12.513Z,36.94
2023-05-11T07:02:38.958Z,36.84
2023-05-11T07:05:05.570Z,36.79
2023-05-11T07:07:32.062Z,36.83
2023-05-11T07:09:58.566Z,36.58
2023-05-11T07:12:26.912Z,36.85
2023-05-11T07:14:54.386Z,36.73
2023-05-11T07:17:21.812Z,36.98
2023-05-11T07:19:48.301Z,37.15
2023-05-11T07:22:15.679Z,36.78
2023-05-11T07:24:42.198Z,36.97
2023-05-11T07:27:08.695Z,37.11
2023-05-11T07:29:36.127Z,37.01
2023-05-11T07:32:03.563Z,36.91
2023-05-11T07:34:30.965Z,36.85
2023-05-11T07:36:57.470Z,36.92
2023-05-11T07:39:24.881Z,36.86
2023-05-11T07:41:52.293Z,36.93
2023-05-11T07:44:19.697Z,36.43
2023-05-11T07:46:46.256Z,36.16
2023-05-11T07:49:18.823Z,36.18
2023-05-11T07:51:47.187Z,35.95
2023-05-11T07:54:13.722Z,35.82
2023-05-11T07:56:40.212Z,36.50
2023-05-11T07:59:07.627Z,36.06
2023-05-11T08:01:34.108Z,36.11
2023-05-11T08:04:00.584Z,36.17
2023-05-11T08:06:27.059Z,36.01
2023-05-11T08:08:53.563Z,36.25
2023-05-11T08:11:20.951Z,36.31
2023-05-11T08:13:48.384Z,36.26
2023-05-11T08:16:15.792Z,36.26
2023-05-11T08:18:42.360Z,36.06
2023-05-11T08:21:08.835Z,36.21
2023-05-11T08:23:36.148Z,35.82
2023-05-11T08:26:02.596Z,35.20
2023-05-11T08:28:29.114Z,35.67
2023-05-11T08:30:58.305Z,35.32
2023-05-11T08:33:37.388Z,34.89
2023-05-11T08:36:05.138Z,34.34
2023-05-11T08:38:31.489Z,34.50
2023-05-11T08:40:57.892Z,34.16
2023-05-11T08:43:25.255Z,34.33
2023-05-11T08:45:51.741Z,34.48
2023-05-11T08:48:19.023Z,33.95
2023-05-11T08:50:45.436Z,34.28
2023-05-11T08:53:12.652Z,34.36
2023-05-11T08:55:41.790Z,34.17
2023-05-11T08:58:10.910Z,34.32
2023-05-11T09:00:37.266Z,34.33
2023-05-11T09:03:03.720Z,34.71
2023-05-11T09:05:30.155Z,34.53
2023-05-11T09:07:56.504Z,34.57
2023-05-11T09:10:22.842Z,34.26
2023-05-11T09:12:49.185Z,34.40
2023-05-11T09:15:17.646Z,34.14
2023-05-11T09:17:46.027Z,33.91
2023-05-11T09:20:12.492Z,34.02
2023-05-11T09:22:38.860Z,34.04
2023-05-11T09:25:06.114Z,33.37
2023-05-11T09:27:32.676Z,33.62
2023-05-11T09:29:59.080Z,33.76
2023-05-11T09:32:25.500Z,33.16
2023-05-11T09:34:51.940Z,33.40
2023-05-11T09:37:18.673Z,33.68
2023-05-11T09:42:19.307Z,33.27
2023-05-11T09:44:45.874Z,32.95
2023-05-11T09:47:12.469Z,32.77
2023-05-11T09:49:39.031Z,33.16
2023-05-11T09:52:05.640Z,33.36
2023-05-11T09:54:31.966Z,33.08
2023-05-11T09:56:58.285Z,33.66
2023-05-11T09:59:26.244Z,32.90
2023-05-11T10:01:54.065Z,32.84
2023-05-11T10:04:23.634Z,33.12
2023-05-11T10:06:50.469Z,32.65
2023-05-11T10:09:16.815Z,32.09
2023-05-11T10:11:43.153Z,32.37
2023-05-11T10:14:09.541Z,32.34
2023-05-11T10:16:35.969Z,32.11
2023-05-11T10:19:02.343Z,32.17
2023-05-11T10:21:28.696Z,32.00
2023-05-11T10:23:55.930Z,32.07
2023-05-11T10:26:22.354Z,32.50
2023-05-11T10:28:48.715Z,32.37
2023-05-11T10:31:15.952Z,32.14
2023-05-11T10:33:42.326Z,31.85
2023-05-11T10:36:08.658Z,31.95
2023-05-11T10:38:35.017Z,32.02
2023-05-11T10:41:01.348Z,31.98
2023-05-11T10:43:27.688Z,32.24
2023-05-11T10:45:54.105Z,32.01
2023-05-11T10:48:20.496Z,32.08
2023-05-11T10:50:46.840Z,32.18
2023-05-11T10:53:13.184Z,32.32
2023-05-11T10:55:39.553Z,32.51
2023-05-11T10:58:05.870Z,32.19
2023-05-11T11:00:32.219Z,32.51
2023-05-11T11:02:58.829Z,32.17
2023-05-11T11:05:25.336Z,31.99
2023-05-11T11:07:51.753Z,31.93
2023-05-11T11:10:19.241Z,32.21
2023-05-11T11:12:45.797Z,31.84
2023-05-11T11:15:12.175Z,31.79
2023-05-11T11:17:39.431Z,32.00
2023-05-11T11:20:05.812Z,31.85
2023-05-11T11:22:32.146Z,32.00
2023-05-11T11:24:58.506Z,31.94
2023-05-11T11:27:28.141Z,31.97
2023-05-11T11:29:55.835Z,31.72
2023-05-11T11:32:22.203Z,31.64
2023-05-11T11:34:48.572Z,31.10
2023-05-11T11:37:14.947Z,31.45
2023-05-11T11:39:41.279Z,31.45
2023-05-11T11:42:07.651Z,31.36
2023-05-11T11:44:34.019Z,31.30
2023-05-11T11:47:00.360Z,30.91
2023-05-11T11:49:26.693Z,31.43
2023-05-11T11:51:53.040Z,30.89
2023-05-11T11:54:19.430Z,31.29
2023-05-11T11:56:45.752Z,30.63
2023-05-11T11:59:12.111Z,29.38
2023-05-11T12:01:38.464Z,29.69
2023-05-11T12:04:05.008Z,28.39
2023-05-11T12:06:31.580Z,28.14
2023-05-11T12:08:57.946Z,27.41
2023-05-11T12:11:25.187Z,28.10
2023-05-11T12:13:52.423Z,29.09
2023-05-11T12:16:19.228Z,29.03
2023-05-11T12:18:46.521Z,28.53
2023-05-11T12:21:14.948Z,29.52
2023-05-11T12:23:41.279Z,28.80
2023-05-11T12:26:07.632Z,29.34
2023-05-11T12:28:34.031Z,28.80
2023-05-11T12:31:00.854Z,28.63
2023-05-11T12:33:27.345Z,28.14
2023-05-11T12:35:54.750Z,29.41
2023-05-11T12:38:21.103Z,28.93
2023-05-11T12:40:47.443Z,28.39
2023-05-11T12:43:13.814Z,28.42
2023-05-11T12:45:40.160Z,29.23
2023-05-11T12:48:06.611Z,28.22
2023-05-11T12:50:32.980Z,28.53
2023-05-11T12:52:59.327Z,28.39
2023-05-11T12:55:25.711Z,28.72
2023-05-11T12:57:52.069Z,29.19
2023-05-11T13:00:20.532Z,28.18
2023-05-11T13:02:48.152Z,28.69
2023-05-11T13:05:14.597Z,28.47
2023-05-11T13:07:41.032Z,29.20
2023-05-11T13:10:07.445Z,29.51
2023-05-11T13:12:33.837Z,29.22
2023-05-11T13:15:00.182Z,28.61
2023-05-11T13:17:27.021Z,29.23
2023-05-11T13:19:53.441Z,29.29
2023-05-11T13:22:19.765Z,29.39
2023-05-11T13:24:46.103Z,29.56
2023-05-11T13:27:12.453Z,29.54
2023-05-11T13:29:38.795Z,29.40
2023-05-11T13:32:05.210Z,29.48
2023-05-11T13:34:31.565Z,30.15
2023-05-11T13:36:57.889Z,30.19
2023-05-11T13:39:27.017Z,30.63
2023-05-11T13:41:55.828Z,30.31
2023-05-11T13:44:22.540Z,30.21
2023-05-11T13:46:48.926Z,30.59
2023-05-11T13:49:15.285Z,30.18
2023-05-11T13:51:41.665Z,30.44
2023-05-11T13:54:08.071Z,29.92
2023-05-11T13:56:34.413Z,29.96
2023-05-11T13:59:00.765Z,30.14
2023-05-11T14:01:27.153Z,30.18
2023-05-11T14:03:53.552Z,29.67
2023-05-11T14:06:19.892Z,30.10
2023-05-11T14:08:46.238Z,29.93
2023-05-11T14:11:12.589Z,29.60
2023-05-11T14:13:39.143Z,29.64
2023-05-11T14:16:05.521Z,29.68
2023-05-11T14:18:31.973Z,29.73
2023-05-11T14:20:58.481Z,29.67
2023-05-11T14:23:24.801Z,29.94
2023-05-11T14:25:51.140Z,29.78
2023-05-11T14:28:17.490Z,30.06
2023-05-11T14:30:43.857Z,29.91
2023-05-11T14:33:10.216Z,29.59
2023-05-11T14:35:39.011Z,28.90
2023-05-11T14:38:06.191Z,29.31
2023-05-11T14:40:32.536Z,28.89
2023-05-11T14:42:58.877Z,29.85
2023-05-11T14:45:25.211Z,29.44
2023-05-11T14:47:51.607Z,30.12
2023-05-11T14:50:18.009Z,29.53
2023-05-11T14:52:44.346Z,30.05
2023-05-11T14:55:10.692Z,30.49
2023-05-11T14:57:37.065Z,30.02
2023-05-11T15:00:03.584Z,30.41
2023-05-11T15:02:30.051Z,30.04
2023-05-11T15:04:56.690Z,30.16
2023-05-11T15:07:23.111Z,30.10
2023-05-11T15:09:49.420Z,30.45
2023-05-11T15:12:15.767Z,30.50
2023-05-11T15:14:44.884Z,30.52
2023-05-11T15:17:12.117Z,30.03
2023-05-11T15:19:38.489Z,30.28
2023-05-11T15:22:04.909Z,29.83
2023-05-11T15:24:31.241Z,29.59
2023-05-11T15:26:57.562Z,29.36
2023-05-11T15:29:23.905Z,29.40
2023-05-11T15:31:50.343Z,29.15
2023-05-11T15:34:16.823Z,29.57
2023-05-11T15:36:43.203Z,29.51
2023-05-11T15:39:09.610Z,29.58
2023-05-11T15:41:35.984Z,29.44
2023-05-11T15:44:03.331Z,29.38
2023-05-11T15:46:30.772Z,29.84
2023-05-11T15:48:59.707Z,30.09
2023-05-11T15:51:26.508Z,29.69
2023-05-11T15:53:52.892Z,30.02
2023-05-11T15:56:19.264Z,29.54
2023-05-11T15:58:45.642Z,30.42
2023-05-11T16:01:12.888Z,30.81
2023-05-11T16:03:39.464Z,30.73
2023-05-11T16:06:05.840Z,30.28
2023-05-11T16:08:32.197Z,29.41
2023-05-11T16:10:58.531Z,30.07
2023-05-11T16:13:25.214Z,30.65
2023-05-11T16:15:51.569Z,30.05
2023-05-11T16:18:17.955Z,30.38
2023-05-11T16:20:44.385Z,30.34
2023-05-11T16:23:10.762Z,30.27
2023-05-11T16:25:37.094Z,30.07
2023-05-11T16:28:03.438Z,29.97
2023-05-11T16:30:30.005Z,30.10
2023-05-11T16:32:56.571Z,30.06
2023-05-11T16:35:22.928Z,30.49
2023-05-11T16:37:49.266Z,30.27
2023-05-11T16:40:15.675Z,30.28
2023-05-11T16:42:42.042Z,30.40
2023-05-11T16:45:08.354Z,30.49
2023-05-11T16:47:34.752Z,30.60
2023-05-11T16:50:01.206Z,30.81
2023-05-11T16:52:27.568Z,31.59
2023-05-11T16:54:53.918Z,30.99
2023-05-11T16:57:20.269Z,30.86
2023-05-11T16:59:46.602Z,30.66
2023-05-11T17:02:13.000Z,30.93
2023-05-11T17:04:39.381Z,31.25
2023-05-11T17:07:05.726Z,30.72
2023-05-11T17:09:32.070Z,30.52
2023-05-11T17:11:58.415Z,30.93
2023-05-11T17:14:24.786Z,31.54
2023-05-11T17:16:51.297Z,30.29
2023-05-11T17:19:17.881Z,30.59
2023-05-11T17:21:44.289Z,31.07
2023-05-11T17:24:10.694Z,30.45
2023-05-11T17:26:46.941Z,30.78
2023-05-11T17:29:15.358Z,30.83
2023-05-11T17:31:41.933Z,30.77
2023-05-11T17:34:09.680Z,30.92
2023-05-11T17:36:37.113Z,30.90
2023-05-11T17:39:03.558Z,31.24
2023-05-11T17:41:29.935Z,30.68
2023-05-11T17:43:56.496Z,30.51
2023-05-11T17:46:22.923Z,31.24
2023-05-11T17:48:49.303Z,32.17
2023-05-11T17:51:16.616Z,31.65
2023-05-11T17:53:43.097Z,32.15
2023-05-11T17:56:09.611Z,32.09
2023-05-11T17:58:37.921Z,32.92
2023-05-11T18:01:04.467Z,32.97
2023-05-11T18:03:31.898Z,33.06
2023-05-11T18:05:58.495Z,33.43
2023-05-11T18:08:24.900Z,33.51
2023-05-11T18:10:51.314Z,33.64
2023-05-11T18:13:20.516Z,34.63
2023-05-11T18:15:47.006Z,34.44
2023-05-11T18:18:14.236Z,34.17
2023-05-11T18:20:40.638Z,34.40
2023-05-11T18:23:06.980Z,34.96
2023-05-11T18:25:33.360Z,34.95
2023-05-11T18:27:59.733Z,35.01
2023-05-11T18:30:26.081Z,34.36
2023-05-11T18:32:52.459Z,34.63
2023-05-11T18:35:18.821Z,34.45
2023-05-11T18:37:45.142Z,34.26
2023-05-11T18:40:11.485Z,34.47
2023-05-11T18:42:37.828Z,34.20
2023-05-11T18:45:04.182Z,34.19
2023-05-11T18:47:32.498Z,34.71
2023-05-11T18:49:59.104Z,35.15
2023-05-11T18:52:26.322Z,34.60
2023-05-11T18:54:56.603Z,36.14
2023-05-11T18:57:23.954Z,34.70
2023-05-11T18:59:50.297Z,35.23
2023-05-11T19:02:16.765Z,35.31
2023-05-11T19:04:43.120Z,35.31
2023-05-11T19:07:09.487Z,35.76
2023-05-11T19:09:35.820Z,35.79
2023-05-11T19:12:02.167Z,36.92
2023-05-11T19:14:28.496Z,37.14
2023-05-11T19:16:54.865Z,36.75
2023-05-11T19:19:22.346Z,37.05
2023-05-11T19:21:48.669Z,36.67
2023-05-11T19:24:15.043Z,36.78
2023-05-11T19:26:42.754Z,36.44
2023-05-11T19:29:11.818Z,36.66
2023-05-11T19:31:38.170Z,36.86
2023-05-11T19:34:04.575Z,36.73
2023-05-11T19:36:30.904Z,36.65
2023-05-11T19:38:57.248Z,36.63
2023-05-11T19:41:23.594Z,36.37
2023-05-11T19:43:50.807Z,35.83
2023-05-11T19:46:17.177Z,37.77
2023-05-11T19:48:43.545Z,36.99
2023-05-11T19:51:09.870Z,37.54
2023-05-11T19:53:36.223Z,37.33
2023-05-11T19:56:02.553Z,37.18
2023-05-11T19:58:28.934Z,36.64
2023-05-11T20:00:55.402Z,37.16
2023-05-11T20:03:21.947Z,36.67
2023-05-11T20:05:49.265Z,36.91
2023-05-11T20:08:15.603Z,37.09
2023-05-11T20:10:41.944Z,38.24
2023-05-11T20:13:08.324Z,37.82
2023-05-11T20:15:34.686Z,37.81
2023-05-11T20:18:01.075Z,37.69
2023-05-11T20:20:27.496Z,37.61
2023-05-11T20:22:53.854Z,37.13
2023-05-11T20:25:20.214Z,37.43
2023-05-11T20:27:46.585Z,36.60
2023-05-11T20:30:12.972Z,38.03
2023-05-11T20:32:39.360Z,36.97
2023-05-11T20:35:05.758Z,36.57
2023-05-11T20:37:32.106Z,37.72
2023-05-11T20:39:58.433Z,37.41
2023-05-11T20:42:24.926Z,37.14
2023-05-11T20:44:52.327Z,36.97
2023-05-11T20:47:18.754Z,35.91
2023-05-11T20:49:46.017Z,35.92
2023-05-11T20:52:14.398Z,35.96
2023-05-11T20:54:43.548Z,35.66
2023-05-11T20:57:11.844Z,35.91
2023-05-11T21:02:10.440Z,35.49
2023-05-11T21:04:37.713Z,35.65
2023-05-11T21:07:04.125Z,35.53
2023-05-11T21:09:30.469Z,35.53
2023-05-11T21:11:56.895Z,35.56
2023-05-11T21:14:24.129Z,35.46
2023-05-11T21:16:50.565Z,35.67
2023-05-11T21:19:17.038Z,35.76
2023-05-11T21:21:44.267Z,35.72
2023-05-11T21:24:11.496Z,35.47
2023-05-11T21:26:38.716Z,35.60
2023-05-11T21:29:05.099Z,35.52
2023-05-11T21:31:31.577Z,35.71
2023-05-11T21:33:58.874Z,35.74
2023-05-11T21:36:25.302Z,35.63
2023-05-11T21:38:51.651Z,35.39
2023-05-11T21:41:18.881Z,35.86
2023-05-11T21:43:46.102Z,35.66
2023-05-11T21:46:13.370Z,35.68
2023-05-11T21:48:40.635Z,35.59
2023-05-11T21:51:07.024Z,35.61
2023-05-11T21:53:33.403Z,35.79
2023-05-11T21:55:59.785Z,35.51
2023-05-11T21:58:26.181Z,35.62
2023-05-11T22:00:52.608Z,35.44
2023-05-11T22:03:19.168Z,35.41
2023-05-11T22:05:45.770Z,35.46
2023-05-11T22:08:15.558Z,35.84
2023-05-11T22:10:42.193Z,35.40
2023-05-11T22:13:08.534Z,36.30
2023-05-11T22:15:34.920Z,36.36
2023-05-11T22:18:01.317Z,35.56
2023-05-11T22:20:27.910Z,35.15
2023-05-11T22:22:56.492Z,35.55
2023-05-11T22:25:23.688Z,35.78
2023-05-11T22:27:50.066Z,35.56
2023-05-11T22:30:17.499Z,35.75
2023-05-11T22:32:44.953Z,35.54
2023-05-11T22:35:12.256Z,35.89
2023-05-11T22:37:39.481Z,35.62
2023-05-11T22:40:06.701Z,35.66
2023-05-11T22:42:33.920Z,35.60
2023-05-11T22:45:01.223Z,35.60
2023-05-11T22:47:27.687Z,36.20
2023-05-11T22:49:54.145Z,35.48
2023-05-11T22:52:20.534Z,35.64
2023-05-11T22:54:47.754Z,35.63
2023-05-11T22:57:14.149Z,36.05
2023-05-11T22:59:40.562Z,35.68
2023-05-11T23:02:06.971Z,35.70
2023-05-11T23:04:34.228Z,35.82
2023-05-11T23:07:00.637Z,35.33
2023-05-11T23:09:27.838Z,35.79
2023-05-11T23:11:56.534Z,35.52
2023-05-11T23:14:22.902Z,35.40
2023-05-11T23:16:49.297Z,35.81
2023-05-11T23:19:16.528Z,36.71
2023-05-11T23:21:42.906Z,35.73
2023-05-11T23:24:09.262Z,35.95
2023-05-11T23:26:35.661Z,35.58
2023-05-11T23:29:02.098Z,35.69
2023-05-11T23:31:29.364Z,35.77
2023-05-11T23:33:55.725Z,35.94
2023-05-11T23:36:22.072Z,35.84
2023-05-11T23:38:48.480Z,35.89
2023-05-11T23:41:15.704Z,35.57
2023-05-11T23:43:42.922Z,35.66
2023-05-11T23:46:09.265Z,36.42
2023-05-11T23:48:35.684Z,35.95
2023-05-11T23:51:02.039Z,36.49
2023-05-11T23:53:29.345Z,35.65
2023-05-11T23:55:56.581Z,35.42
2023-05-11T23:58:23.798Z,35.92
